Record high temperature 38.5°C Record low temperature -6.1°C Record high gust 94.9 km/h Record high average 70.9 km/h Record daily rain 58.2 mm Record low windchill -9.9°C Record high barometer 1045.9 hPa Record low barometer 985.2 hPa
Daily high pressure 1011.8 hPa Daily low pressure 1009.9 hPa Daily low windchill 16.8°C Daily high heat index 24.5°C Daily high gust speed 20.4 kmh ESE Daily high average speed 10.9 kmh E
Stazione meteo Crema centro
ULTIMO RILEVAMENTO ALLE ORE: 13:05 GIORNO: 24 Settembre 2020 prossimo aggiornamento ore: 13:10
Tempo presenteCloudy/Dry Temperatura attuale 23.9°C (75.0°F) (Indice calore 24.6°C ), temperatura apparente 26.2°C , Apparent temp solar 31.0°C
Temperatura massima (da mezzanotte)24.5°C alle ore: 12:54 Temperatura minima (da mezzanotte)16.8°C alle ore: 06:49
Forza media vento (dieci minuti)4.4 kmh (2.4 kts) Direzione vento (dieci minuti)E (84°)
Indice calore 24.6°C Massima forza (ultima ora)14.5 kmh (7.8 kts) alle ore: 12:39
Massima forza (da mezzanotte)20.4 kmh (11.0 kts) alle ore: 11:40 Massimo vento 1 minuto (da mezzanotte)10.9 kmh (5.9 kts) alle ore: 10:50
Pioggia (ultima ora)0.0 mm Pioggia (da mezzanotte)0.0 mm (0.00 in.)---
Pioggia Questo mese 25.4 mm (1.00 in.) Pioggia Questo anno 525.0 mm (20.67 in.)
Massima pioggia per minuto (ultima ora)0.0 mm/min Massima pioggia per ora (ultime 6 ore)0.0 mm/ore
Pioggia di ieri 6.6 mm DewPoint 19.0°C (Wet Bulb :20.7°C )
Umidita 74 %, Humidex 30.6°C Pressione S.L.M.1011.1 hPa (QNH 1011.1 hPa
Variazione pressione -0.2 hPa (ultima ora) Tendenza (ultime 1 ore)Stazionaria
Variazione pressione (ultime 12 ore)+1.0 hPa Variazione pressione (ultime 6 ore)+0.8 hPa
Current Solar 330 W/mē
Maximum solar (da mezzanotte) 831 W/mē Minimum solar (da mezzanotte)0 W/mē
Current 01:57 hours of sunshine today, current sky: Cloudy
Sunshine hours for the year: 1545:39 hrs Sunshine hours for the month: 137:51 hrs
Current evapotranspiration rate 1.7 mm per day. Yesterday's reading 2.5

Questa pagina e` aggiornata con i dati della stazione meteo DAVIS VP Premere Reload o Refresh per facilitare la lettura dei dati aggiornati.

Status report of weather station: IK2CHZ - Crema meteo



Weather report/warning/Metars

Milano / Linate, Italy (LIML) 45-26N 009-17E 103M
Sep 24, 2020 - 06:50 AM EDT / 2020.09.24 1050 UTC
Wind: from the NE (040 degrees) at 5 MPH (4 KT) (direction variable):0
Visibility: 5 mile(s):0
Sky conditions: partly cloudy
Temperature: 69 F (21 C)
Dew Point: 62 F (17 C)
Relative Humidity: 77%
Pressure (altimeter): 29.85 in. Hg (1011 hPa)
ob: LIML 241050Z 04004KT 010V110 9000 FEW015 SCT030 21/17 Q1011 NOSIG
cycle: 11
Bergamo / Orio Al Serio, Italy (LIME) 45-40N 009-42E 237M
Sep 24, 2020 - 06:50 AM EDT / 2020.09.24 1050 UTC
Wind: from the ENE (060 degrees) at 3 MPH (3 KT) (direction variable):0
Visibility: greater than 7 mile(s):0
Sky conditions: mostly cloudy
Temperature: 66 F (19 C)
Dew Point: 62 F (17 C)
Relative Humidity: 88%
Pressure (altimeter): 29.88 in. Hg (1012 hPa)
ob: LIME 241050Z 06003KT 020V080 9999 BKN045 19/17 Q1012 NOSIG
cycle: 11
Piacenza, Italy (LIMS) 44-55N 009-44E 138M
Sep 24, 2020 - 05:55 AM EDT / 2020.09.24 0955 UTC
Wind: from the E (090 degrees) at 5 MPH (4 KT) (direction variable):0
Visibility: greater than 7 mile(s):0
Sky conditions: mostly clear
Temperature: 71 F (22 C)
Dew Point: 64 F (18 C)
Relative Humidity: 78%
Pressure (altimeter): 29.85 in. Hg (1011 hPa)
ob: LIMS 240955Z 09004KT 050V130 9999 FEW060 22/18 Q1011
cycle: 10